sensor_id;sensor_type;location;lat;lon;timestamp;P1;durP1;ratioP1;P2;durP2;ratioP2
37267;SDS011;23154;52.542;13.362;2023-07-20T00:01:23;14.30;;;4.22;;
37267;SDS011;23154;52.542;13.362;2023-07-20T00:03:50;13.60;;;4.30;;
37267;SDS011;23154;52.542;13.362;2023-07-20T00:06:23;11.40;;;3.97;;
37267;SDS011;23154;52.542;13.362;2023-07-20T00:08:49;13.00;;;4.15;;
37267;SDS011;23154;52.542;13.362;2023-07-20T00:11:15;12.15;;;4.10;;
37267;SDS011;23154;52.542;13.362;2023-07-20T00:13:42;12.55;;;4.43;;
37267;SDS011;23154;52.542;13.362;2023-07-20T00:16:08;14.40;;;5.10;;
37267;SDS011;23154;52.542;13.362;2023-07-20T00:18:34;10.68;;;4.13;;
37267;SDS011;23154;52.542;13.362;2023-07-20T00:21:00;12.18;;;4.78;;
37267;SDS011;23154;52.542;13.362;2023-07-20T00:23:26;13.23;;;4.50;;
37267;SDS011;23154;52.542;13.362;2023-07-20T00:25:53;14.98;;;4.90;;
37267;SDS011;23154;52.542;13.362;2023-07-20T00:28:19;14.85;;;4.97;;
37267;SDS011;23154;52.542;13.362;2023-07-20T00:30:45;14.98;;;4.45;;
37267;SDS011;23154;52.542;13.362;2023-07-20T00:33:12;12.00;;;4.57;;
37267;SDS011;23154;52.542;13.362;2023-07-20T00:35:38;13.57;;;4.55;;
37267;SDS011;23154;52.542;13.362;2023-07-20T00:38:04;13.40;;;4.60;;
37267;SDS011;23154;52.542;13.362;2023-07-20T00:40:37;15.18;;;5.03;;
37267;SDS011;23154;52.542;13.362;2023-07-20T00:43:05;16.13;;;5.65;;
37267;SDS011;23154;52.542;13.362;2023-07-20T00:45:31;14.98;;;5.35;;
37267;SDS011;23154;52.542;13.362;2023-07-20T00:47:57;11.93;;;4.68;;
37267;SDS011;23154;52.542;13.362;2023-07-20T00:50:24;15.85;;;6.15;;
37267;SDS011;23154;52.542;13.362;2023-07-20T00:52:52;16.55;;;5.90;;
37267;SDS011;23154;52.542;13.362;2023-07-20T00:55:18;14.35;;;4.90;;
37267;SDS011;23154;52.542;13.362;2023-07-20T00:57:45;13.45;;;5.32;;
37267;SDS011;23154;52.542;13.362;2023-07-20T01:00:12;15.65;;;5.35;;
37267;SDS011;23154;52.542;13.362;2023-07-20T01:02:38;17.33;;;5.32;;
37267;SDS011;23154;52.542;13.362;2023-07-20T01:05:05;12.43;;;4.90;;
37267;SDS011;23154;52.542;13.362;2023-07-20T01:07:52;12.48;;;4.50;;
37267;SDS011;23154;52.542;13.362;2023-07-20T01:10:25;13.43;;;4.30;;
37267;SDS011;23154;52.542;13.362;2023-07-20T01:12:52;15.93;;;5.53;;
37267;SDS011;23154;52.542;13.362;2023-07-20T01:15:18;14.85;;;4.97;;
37267;SDS011;23154;52.542;13.362;2023-07-20T01:17:44;15.60;;;5.35;;
37267;SDS011;23154;52.542;13.362;2023-07-20T01:20:12;13.73;;;5.43;;
37267;SDS011;23154;52.542;13.362;2023-07-20T01:25:29;14.27;;;5.20;;
37267;SDS011;23154;52.542;13.362;2023-07-20T01:33:16;14.02;;;4.90;;
37267;SDS011;23154;52.542;13.362;2023-07-20T01:35:42;15.35;;;5.30;;
37267;SDS011;23154;52.542;13.362;2023-07-20T01:38:09;16.40;;;5.15;;
37267;SDS011;23154;52.542;13.362;2023-07-20T01:40:36;12.93;;;4.90;;
37267;SDS011;23154;52.542;13.362;2023-07-20T01:43:02;15.18;;;5.18;;
37267;SDS011;23154;52.542;13.362;2023-07-20T01:45:28;12.98;;;5.28;;
37267;SDS011;23154;52.542;13.362;2023-07-20T01:47:54;12.57;;;4.93;;
37267;SDS011;23154;52.542;13.362;2023-07-20T01:50:21;14.52;;;5.18;;
37267;SDS011;23154;52.542;13.362;2023-07-20T01:52:47;15.15;;;5.10;;
37267;SDS011;23154;52.542;13.362;2023-07-20T01:55:13;15.18;;;5.13;;
37267;SDS011;23154;52.542;13.362;2023-07-20T01:57:39;13.52;;;4.90;;
37267;SDS011;23154;52.542;13.362;2023-07-20T02:00:05;13.30;;;4.75;;
37267;SDS011;23154;52.542;13.362;2023-07-20T02:02:32;13.80;;;5.25;;
37267;SDS011;23154;52.542;13.362;2023-07-20T02:04:58;13.68;;;5.28;;
37267;SDS011;23154;52.542;13.362;2023-07-20T02:07:24;14.05;;;5.50;;
37267;SDS011;23154;52.542;13.362;2023-07-20T02:09:50;13.73;;;5.22;;
37267;SDS011;23154;52.542;13.362;2023-07-20T02:12:16;15.27;;;5.95;;
37267;SDS011;23154;52.542;13.362;2023-07-20T02:14:42;15.18;;;5.22;;
37267;SDS011;23154;52.542;13.362;2023-07-20T02:17:08;13.18;;;5.47;;
37267;SDS011;23154;52.542;13.362;2023-07-20T02:19:36;16.10;;;6.03;;
37267;SDS011;23154;52.542;13.362;2023-07-20T02:22:02;12.98;;;5.57;;
37267;SDS011;23154;52.542;13.362;2023-07-20T02:24:28;15.20;;;5.75;;
37267;SDS011;23154;52.542;13.362;2023-07-20T02:26:54;16.95;;;7.45;;
37267;SDS011;23154;52.542;13.362;2023-07-20T02:29:20;18.75;;;7.03;;
37267;SDS011;23154;52.542;13.362;2023-07-20T02:31:46;19.90;;;8.10;;
37267;SDS011;23154;52.542;13.362;2023-07-20T02:34:12;18.63;;;8.07;;
37267;SDS011;23154;52.542;13.362;2023-07-20T02:36:39;19.33;;;8.73;;
37267;SDS011;23154;52.542;13.362;2023-07-20T02:39:07;20.80;;;8.75;;
37267;SDS011;23154;52.542;13.362;2023-07-20T02:41:33;21.08;;;8.85;;
37267;SDS011;23154;52.542;13.362;2023-07-20T02:43:59;19.48;;;8.63;;
37267;SDS011;23154;52.542;13.362;2023-07-20T02:46:26;19.95;;;9.50;;
37267;SDS011;23154;52.542;13.362;2023-07-20T02:48:54;19.75;;;8.55;;
37267;SDS011;23154;52.542;13.362;2023-07-20T02:51:20;18.38;;;8.55;;
37267;SDS011;23154;52.542;13.362;2023-07-20T02:53:46;20.05;;;8.93;;
37267;SDS011;23154;52.542;13.362;2023-07-20T02:56:12;18.35;;;9.13;;
37267;SDS011;23154;52.542;13.362;2023-07-20T02:58:40;19.98;;;9.88;;
37267;SDS011;23154;52.542;13.362;2023-07-20T03:01:08;19.30;;;9.68;;
37267;SDS011;23154;52.542;13.362;2023-07-20T03:03:36;21.75;;;9.60;;
37267;SDS011;23154;52.542;13.362;2023-07-20T03:06:06;20.35;;;8.88;;
37267;SDS011;23154;52.542;13.362;2023-07-20T03:08:34;22.25;;;8.93;;
37267;SDS011;23154;52.542;13.362;2023-07-20T03:11:01;21.77;;;9.02;;
37267;SDS011;23154;52.542;13.362;2023-07-20T03:13:27;19.00;;;9.35;;
37267;SDS011;23154;52.542;13.362;2023-07-20T03:15:53;17.52;;;9.02;;
37267;SDS011;23154;52.542;13.362;2023-07-20T03:18:19;24.63;;;9.63;;
37267;SDS011;23154;52.542;13.362;2023-07-20T03:20:45;19.25;;;8.95;;
37267;SDS011;23154;52.542;13.362;2023-07-20T03:23:11;21.45;;;9.45;;
37267;SDS011;23154;52.542;13.362;2023-07-20T03:25:37;22.23;;;9.95;;
37267;SDS011;23154;52.542;13.362;2023-07-20T03:28:03;20.92;;;9.13;;
37267;SDS011;23154;52.542;13.362;2023-07-20T03:30:29;22.55;;;9.25;;
37267;SDS011;23154;52.542;13.362;2023-07-20T03:32:55;20.95;;;9.80;;
37267;SDS011;23154;52.542;13.362;2023-07-20T03:35:21;21.85;;;9.43;;
37267;SDS011;23154;52.542;13.362;2023-07-20T03:37:48;21.92;;;9.73;;
37267;SDS011;23154;52.542;13.362;2023-07-20T03:40:14;18.63;;;8.75;;
37267;SDS011;23154;52.542;13.362;2023-07-20T03:42:41;19.52;;;8.88;;
37267;SDS011;23154;52.542;13.362;2023-07-20T03:45:07;19.65;;;8.57;;
37267;SDS011;23154;52.542;13.362;2023-07-20T03:47:33;18.27;;;8.15;;
37267;SDS011;23154;52.542;13.362;2023-07-20T03:49:59;19.45;;;8.73;;
37267;SDS011;23154;52.542;13.362;2023-07-20T03:52:25;20.33;;;8.65;;
37267;SDS011;23154;52.542;13.362;2023-07-20T03:54:51;17.88;;;8.57;;
37267;SDS011;23154;52.542;13.362;2023-07-20T03:57:17;20.08;;;8.73;;
37267;SDS011;23154;52.542;13.362;2023-07-20T03:59:46;18.55;;;8.52;;
37267;SDS011;23154;52.542;13.362;2023-07-20T04:02:12;18.23;;;7.85;;
37267;SDS011;23154;52.542;13.362;2023-07-20T04:04:39;20.80;;;7.88;;
37267;SDS011;23154;52.542;13.362;2023-07-20T04:07:05;16.30;;;7.55;;
37267;SDS011;23154;52.542;13.362;2023-07-20T04:09:32;17.48;;;8.10;;
37267;SDS011;23154;52.542;13.362;2023-07-20T04:11:58;18.77;;;7.60;;
37267;SDS011;23154;52.542;13.362;2023-07-20T04:14:25;18.08;;;7.90;;
37267;SDS011;23154;52.542;13.362;2023-07-20T04:16:51;18.38;;;7.97;;
37267;SDS011;23154;52.542;13.362;2023-07-20T04:19:17;18.75;;;8.43;;
37267;SDS011;23154;52.542;13.362;2023-07-20T04:21:43;19.20;;;8.77;;
37267;SDS011;23154;52.542;13.362;2023-07-20T04:24:09;17.63;;;8.77;;
37267;SDS011;23154;52.542;13.362;2023-07-20T04:26:35;18.40;;;8.25;;
37267;SDS011;23154;52.542;13.362;2023-07-20T04:29:01;18.15;;;8.35;;
37267;SDS011;23154;52.542;13.362;2023-07-20T04:31:28;18.00;;;8.32;;
37267;SDS011;23154;52.542;13.362;2023-07-20T04:33:57;19.25;;;8.82;;
37267;SDS011;23154;52.542;13.362;2023-07-20T04:36:23;19.20;;;8.77;;
37267;SDS011;23154;52.542;13.362;2023-07-20T04:38:49;19.08;;;8.23;;
37267;SDS011;23154;52.542;13.362;2023-07-20T04:41:15;18.45;;;8.95;;
37267;SDS011;23154;52.542;13.362;2023-07-20T04:43:41;18.08;;;8.10;;
37267;SDS011;23154;52.542;13.362;2023-07-20T04:46:08;20.65;;;8.20;;
37267;SDS011;23154;52.542;13.362;2023-07-20T04:48:34;18.10;;;7.82;;
37267;SDS011;23154;52.542;13.362;2023-07-20T04:51:00;20.40;;;8.70;;
37267;SDS011;23154;52.542;13.362;2023-07-20T04:53:26;18.27;;;8.43;;
37267;SDS011;23154;52.542;13.362;2023-07-20T04:55:52;18.10;;;8.05;;
37267;SDS011;23154;52.542;13.362;2023-07-20T04:58:19;17.95;;;8.05;;
37267;SDS011;23154;52.542;13.362;2023-07-20T05:00:46;19.90;;;8.40;;
37267;SDS011;23154;52.542;13.362;2023-07-20T05:03:12;16.23;;;7.30;;
37267;SDS011;23154;52.542;13.362;2023-07-20T05:05:38;18.05;;;6.80;;
37267;SDS011;23154;52.542;13.362;2023-07-20T05:08:04;18.00;;;7.45;;
37267;SDS011;23154;52.542;13.362;2023-07-20T05:10:31;15.60;;;6.72;;
37267;SDS011;23154;52.542;13.362;2023-07-20T05:12:57;17.98;;;7.68;;
37267;SDS011;23154;52.542;13.362;2023-07-20T05:15:23;16.40;;;7.28;;
37267;SDS011;23154;52.542;13.362;2023-07-20T05:17:49;16.15;;;6.53;;
37267;SDS011;23154;52.542;13.362;2023-07-20T05:20:15;14.88;;;6.70;;
37267;SDS011;23154;52.542;13.362;2023-07-20T05:22:42;17.17;;;6.40;;
37267;SDS011;23154;52.542;13.362;2023-07-20T05:25:08;19.80;;;7.35;;
37267;SDS011;23154;52.542;13.362;2023-07-20T05:27:36;16.55;;;6.00;;
37267;SDS011;23154;52.542;13.362;2023-07-20T05:30:02;15.55;;;6.30;;
37267;SDS011;23154;52.542;13.362;2023-07-20T05:32:28;15.75;;;7.10;;
37267;SDS011;23154;52.542;13.362;2023-07-20T05:34:54;17.85;;;6.60;;
37267;SDS011;23154;52.542;13.362;2023-07-20T05:37:21;18.33;;;6.90;;
37267;SDS011;23154;52.542;13.362;2023-07-20T05:39:47;17.50;;;7.00;;
37267;SDS011;23154;52.542;13.362;2023-07-20T05:42:13;18.90;;;8.13;;
37267;SDS011;23154;52.542;13.362;2023-07-20T05:44:39;16.15;;;6.07;;
37267;SDS011;23154;52.542;13.362;2023-07-20T05:47:05;19.10;;;7.35;;
37267;SDS011;23154;52.542;13.362;2023-07-20T05:49:31;18.60;;;7.05;;
37267;SDS011;23154;52.542;13.362;2023-07-20T05:51:57;15.00;;;6.53;;
37267;SDS011;23154;52.542;13.362;2023-07-20T05:54:24;16.75;;;6.40;;
37267;SDS011;23154;52.542;13.362;2023-07-20T05:56:50;14.30;;;5.93;;
37267;SDS011;23154;52.542;13.362;2023-07-20T05:59:16;15.20;;;5.97;;
37267;SDS011;23154;52.542;13.362;2023-07-20T06:01:43;16.63;;;6.47;;
37267;SDS011;23154;52.542;13.362;2023-07-20T06:04:09;16.15;;;6.18;;
37267;SDS011;23154;52.542;13.362;2023-07-20T06:06:35;15.57;;;6.63;;
37267;SDS011;23154;52.542;13.362;2023-07-20T06:09:01;17.08;;;6.65;;
37267;SDS011;23154;52.542;13.362;2023-07-20T06:11:34;17.10;;;6.40;;
37267;SDS011;23154;52.542;13.362;2023-07-20T06:14:01;16.70;;;6.05;;
37267;SDS011;23154;52.542;13.362;2023-07-20T06:16:27;14.35;;;5.55;;
37267;SDS011;23154;52.542;13.362;2023-07-20T06:18:53;14.80;;;6.20;;
37267;SDS011;23154;52.542;13.362;2023-07-20T06:21:19;15.05;;;5.90;;
37267;SDS011;23154;52.542;13.362;2023-07-20T06:23:45;17.00;;;5.60;;
37267;SDS011;23154;52.542;13.362;2023-07-20T06:26:11;15.40;;;5.47;;
37267;SDS011;23154;52.542;13.362;2023-07-20T06:28:37;13.88;;;5.28;;
37267;SDS011;23154;52.542;13.362;2023-07-20T06:31:03;14.90;;;4.90;;
37267;SDS011;23154;52.542;13.362;2023-07-20T06:33:29;14.80;;;4.60;;
37267;SDS011;23154;52.542;13.362;2023-07-20T06:35:55;13.73;;;3.88;;
37267;SDS011;23154;52.542;13.362;2023-07-20T06:38:24;16.30;;;4.30;;
37267;SDS011;23154;52.542;13.362;2023-07-20T06:40:50;11.88;;;4.63;;
37267;SDS011;23154;52.542;13.362;2023-07-20T06:43:17;15.15;;;4.60;;
37267;SDS011;23154;52.542;13.362;2023-07-20T06:45:43;14.15;;;3.97;;
37267;SDS011;23154;52.542;13.362;2023-07-20T06:48:09;10.52;;;3.83;;
37267;SDS011;23154;52.542;13.362;2023-07-20T06:50:35;11.70;;;3.90;;
37267;SDS011;23154;52.542;13.362;2023-07-20T06:53:01;13.88;;;3.38;;
37267;SDS011;23154;52.542;13.362;2023-07-20T06:55:29;8.55;;;2.95;;
37267;SDS011;23154;52.542;13.362;2023-07-20T06:57:55;7.47;;;2.20;;
37267;SDS011;23154;52.542;13.362;2023-07-20T07:00:21;7.90;;;2.80;;
37267;SDS011;23154;52.542;13.362;2023-07-20T07:02:47;9.40;;;2.70;;
37267;SDS011;23154;52.542;13.362;2023-07-20T07:05:13;8.43;;;2.70;;
37267;SDS011;23154;52.542;13.362;2023-07-20T07:07:40;8.98;;;2.60;;
37267;SDS011;23154;52.542;13.362;2023-07-20T07:10:07;7.88;;;2.63;;
37267;SDS011;23154;52.542;13.362;2023-07-20T07:12:33;6.95;;;1.98;;
37267;SDS011;23154;52.542;13.362;2023-07-20T07:15:00;5.95;;;1.90;;
37267;SDS011;23154;52.542;13.362;2023-07-20T07:17:26;7.45;;;2.15;;
37267;SDS011;23154;52.542;13.362;2023-07-20T07:19:52;5.63;;;2.15;;
37267;SDS011;23154;52.542;13.362;2023-07-20T07:22:20;4.20;;;1.67;;
37267;SDS011;23154;52.542;13.362;2023-07-20T07:24:49;9.17;;;1.60;;
37267;SDS011;23154;52.542;13.362;2023-07-20T07:27:15;6.05;;;1.60;;
37267;SDS011;23154;52.542;13.362;2023-07-20T07:29:41;3.70;;;1.50;;
37267;SDS011;23154;52.542;13.362;2023-07-20T07:32:09;8.77;;;1.80;;
37267;SDS011;23154;52.542;13.362;2023-07-20T07:34:36;4.18;;;1.50;;
37267;SDS011;23154;52.542;13.362;2023-07-20T07:37:02;9.55;;;1.73;;
37267;SDS011;23154;52.542;13.362;2023-07-20T07:39:28;6.75;;;1.45;;
37267;SDS011;23154;52.542;13.362;2023-07-20T07:41:55;6.25;;;1.65;;
37267;SDS011;23154;52.542;13.362;2023-07-20T07:44:21;5.40;;;1.60;;
37267;SDS011;23154;52.542;13.362;2023-07-20T07:46:47;4.95;;;1.58;;
37267;SDS011;23154;52.542;13.362;2023-07-20T07:49:13;3.35;;;1.63;;
37267;SDS011;23154;52.542;13.362;2023-07-20T07:51:39;4.22;;;1.40;;
37267;SDS011;23154;52.542;13.362;2023-07-20T07:54:05;5.22;;;1.42;;
37267;SDS011;23154;52.542;13.362;2023-07-20T07:56:31;2.40;;;1.23;;
37267;SDS011;23154;52.542;13.362;2023-07-20T07:58:57;2.97;;;1.30;;
37267;SDS011;23154;52.542;13.362;2023-07-20T08:01:23;6.35;;;1.55;;
37267;SDS011;23154;52.542;13.362;2023-07-20T08:03:50;3.85;;;1.38;;
37267;SDS011;23154;52.542;13.362;2023-07-20T08:06:16;5.07;;;1.25;;
37267;SDS011;23154;52.542;13.362;2023-07-20T08:08:43;6.95;;;1.50;;
37267;SDS011;23154;52.542;13.362;2023-07-20T08:11:09;4.40;;;1.20;;
37267;SDS011;23154;52.542;13.362;2023-07-20T08:13:35;2.33;;;0.95;;
37267;SDS011;23154;52.542;13.362;2023-07-20T08:16:01;2.65;;;1.25;;
37267;SDS011;23154;52.542;13.362;2023-07-20T08:18:28;2.88;;;1.00;;
37267;SDS011;23154;52.542;13.362;2023-07-20T08:20:54;5.47;;;1.13;;
37267;SDS011;23154;52.542;13.362;2023-07-20T08:23:20;4.07;;;1.40;;
37267;SDS011;23154;52.542;13.362;2023-07-20T08:25:46;1.77;;;1.00;;
37267;SDS011;23154;52.542;13.362;2023-07-20T08:28:16;1.65;;;0.93;;
37267;SDS011;23154;52.542;13.362;2023-07-20T08:33:09;7.40;;;2.33;;
37267;SDS011;23154;52.542;13.362;2023-07-20T08:35:36;3.90;;;0.90;;
37267;SDS011;23154;52.542;13.362;2023-07-20T08:38:02;2.70;;;0.80;;
37267;SDS011;23154;52.542;13.362;2023-07-20T08:40:29;3.60;;;1.05;;
37267;SDS011;23154;52.542;13.362;2023-07-20T08:42:55;2.08;;;0.88;;
37267;SDS011;23154;52.542;13.362;2023-07-20T08:45:23;3.33;;;0.93;;
37267;SDS011;23154;52.542;13.362;2023-07-20T08:47:51;1.50;;;0.90;;
37267;SDS011;23154;52.542;13.362;2023-07-20T08:50:18;2.47;;;0.80;;
37267;SDS011;23154;52.542;13.362;2023-07-20T08:52:44;2.80;;;0.95;;
37267;SDS011;23154;52.542;13.362;2023-07-20T08:55:10;4.00;;;1.00;;
37267;SDS011;23154;52.542;13.362;2023-07-20T08:57:36;2.60;;;1.00;;
37267;SDS011;23154;52.542;13.362;2023-07-20T09:00:05;3.45;;;0.90;;
37267;SDS011;23154;52.542;13.362;2023-07-20T09:02:38;4.07;;;1.05;;
37267;SDS011;23154;52.542;13.362;2023-07-20T09:05:08;1.25;;;0.77;;
37267;SDS011;23154;52.542;13.362;2023-07-20T09:07:38;2.55;;;0.93;;
37267;SDS011;23154;52.542;13.362;2023-07-20T09:10:05;2.78;;;0.95;;
37267;SDS011;23154;52.542;13.362;2023-07-20T09:12:35;3.55;;;1.05;;
37267;SDS011;23154;52.542;13.362;2023-07-20T09:15:02;1.67;;;0.90;;
37267;SDS011;23154;52.542;13.362;2023-07-20T09:17:28;2.08;;;0.90;;
37267;SDS011;23154;52.542;13.362;2023-07-20T09:19:54;3.88;;;1.00;;
37267;SDS011;23154;52.542;13.362;2023-07-20T09:22:20;3.75;;;0.90;;
37267;SDS011;23154;52.542;13.362;2023-07-20T09:24:46;8.32;;;1.20;;
37267;SDS011;23154;52.542;13.362;2023-07-20T09:27:12;1.65;;;0.90;;
37267;SDS011;23154;52.542;13.362;2023-07-20T09:29:47;5.22;;;1.10;;
37267;SDS011;23154;52.542;13.362;2023-07-20T09:32:14;3.17;;;1.00;;
37267;SDS011;23154;52.542;13.362;2023-07-20T09:34:44;2.90;;;0.75;;
37267;SDS011;23154;52.542;13.362;2023-07-20T09:37:10;4.88;;;1.30;;
37267;SDS011;23154;52.542;13.362;2023-07-20T09:39:43;2.17;;;1.00;;
37267;SDS011;23154;52.542;13.362;2023-07-20T09:42:10;5.28;;;1.08;;
37267;SDS011;23154;52.542;13.362;2023-07-20T09:44:37;3.70;;;1.00;;
37267;SDS011;23154;52.542;13.362;2023-07-20T09:47:04;3.38;;;0.85;;
37267;SDS011;23154;52.542;13.362;2023-07-20T09:49:30;2.72;;;1.10;;
37267;SDS011;23154;52.542;13.362;2023-07-20T09:51:57;5.10;;;1.20;;
37267;SDS011;23154;52.542;13.362;2023-07-20T09:54:24;2.88;;;1.02;;
37267;SDS011;23154;52.542;13.362;2023-07-20T09:56:50;1.73;;;0.80;;
37267;SDS011;23154;52.542;13.362;2023-07-20T09:59:17;9.50;;;2.95;;
37267;SDS011;23154;52.542;13.362;2023-07-20T10:01:43;4.53;;;1.17;;
37267;SDS011;23154;52.542;13.362;2023-07-20T10:04:10;3.38;;;1.23;;
37267;SDS011;23154;52.542;13.362;2023-07-20T10:06:37;4.35;;;1.27;;
37267;SDS011;23154;52.542;13.362;2023-07-20T10:09:05;1.90;;;1.02;;
37267;SDS011;23154;52.542;13.362;2023-07-20T10:11:34;4.38;;;1.27;;
37267;SDS011;23154;52.542;13.362;2023-07-20T10:14:03;5.43;;;1.30;;
37267;SDS011;23154;52.542;13.362;2023-07-20T10:16:36;2.72;;;1.05;;
37267;SDS011;23154;52.542;13.362;2023-07-20T10:19:05;4.63;;;1.25;;
37267;SDS011;23154;52.542;13.362;2023-07-20T10:21:33;3.97;;;1.30;;
37267;SDS011;23154;52.542;13.362;2023-07-20T10:24:01;2.33;;;1.00;;
37267;SDS011;23154;52.542;13.362;2023-07-20T10:26:28;4.43;;;1.38;;
37267;SDS011;23154;52.542;13.362;2023-07-20T10:28:54;5.00;;;1.30;;
37267;SDS011;23154;52.542;13.362;2023-07-20T10:31:22;4.63;;;1.30;;
37267;SDS011;23154;52.542;13.362;2023-07-20T10:33:48;6.22;;;1.48;;
37267;SDS011;23154;52.542;13.362;2023-07-20T10:36:15;4.28;;;1.20;;
37267;SDS011;23154;52.542;13.362;2023-07-20T10:38:42;2.80;;;1.20;;
37267;SDS011;23154;52.542;13.362;2023-07-20T10:44:03;4.22;;;1.10;;
37267;SDS011;23154;52.542;13.362;2023-07-20T10:49:02;6.45;;;1.40;;
37267;SDS011;23154;52.542;13.362;2023-07-20T10:51:29;2.00;;;0.80;;
37267;SDS011;23154;52.542;13.362;2023-07-20T10:53:57;2.63;;;1.10;;
37267;SDS011;23154;52.542;13.362;2023-07-20T10:56:26;3.63;;;1.15;;
37267;SDS011;23154;52.542;13.362;2023-07-20T10:58:57;3.95;;;1.30;;
37267;SDS011;23154;52.542;13.362;2023-07-20T11:03:50;6.90;;;1.10;;
37267;SDS011;23154;52.542;13.362;2023-07-20T11:08:55;4.85;;;1.10;;
37267;SDS011;23154;52.542;13.362;2023-07-20T11:11:22;5.28;;;1.13;;
37267;SDS011;23154;52.542;13.362;2023-07-20T11:13:57;5.28;;;1.33;;
37267;SDS011;23154;52.542;13.362;2023-07-20T11:19:05;7.57;;;1.05;;
37267;SDS011;23154;52.542;13.362;2023-07-20T11:21:38;3.15;;;1.00;;
37267;SDS011;23154;52.542;13.362;2023-07-20T11:24:06;4.00;;;1.30;;
37267;SDS011;23154;52.542;13.362;2023-07-20T11:29:11;5.13;;;1.10;;
37267;SDS011;23154;52.542;13.362;2023-07-20T11:31:38;1.00;;;0.70;;
37267;SDS011;23154;52.542;13.362;2023-07-20T11:34:04;1.83;;;0.90;;
37267;SDS011;23154;52.542;13.362;2023-07-20T11:36:30;4.85;;;1.10;;
37267;SDS011;23154;52.542;13.362;2023-07-20T11:38:56;6.80;;;1.70;;
37267;SDS011;23154;52.542;13.362;2023-07-20T11:41:22;4.72;;;1.38;;
37267;SDS011;23154;52.542;13.362;2023-07-20T11:43:48;5.45;;;1.02;;
37267;SDS011;23154;52.542;13.362;2023-07-20T11:46:15;8.82;;;2.38;;
37267;SDS011;23154;52.542;13.362;2023-07-20T11:48:41;3.17;;;1.02;;
37267;SDS011;23154;52.542;13.362;2023-07-20T11:51:12;5.40;;;1.20;;
37267;SDS011;23154;52.542;13.362;2023-07-20T11:53:39;2.47;;;1.02;;
37267;SDS011;23154;52.542;13.362;2023-07-20T11:56:05;1.80;;;0.85;;
37267;SDS011;23154;52.542;13.362;2023-07-20T11:58:31;7.57;;;0.88;;
37267;SDS011;23154;52.542;13.362;2023-07-20T12:00:57;3.70;;;1.00;;
37267;SDS011;23154;52.542;13.362;2023-07-20T12:03:23;3.05;;;0.98;;
37267;SDS011;23154;52.542;13.362;2023-07-20T12:05:49;3.88;;;1.00;;
37267;SDS011;23154;52.542;13.362;2023-07-20T12:08:15;2.30;;;0.98;;
37267;SDS011;23154;52.542;13.362;2023-07-20T12:10:42;3.72;;;1.02;;
37267;SDS011;23154;52.542;13.362;2023-07-20T12:13:09;2.92;;;1.00;;
37267;SDS011;23154;52.542;13.362;2023-07-20T12:15:39;5.47;;;1.10;;
37267;SDS011;23154;52.542;13.362;2023-07-20T12:18:05;2.70;;;0.80;;
37267;SDS011;23154;52.542;13.362;2023-07-20T12:20:32;5.25;;;0.90;;
37267;SDS011;23154;52.542;13.362;2023-07-20T12:23:03;3.38;;;1.17;;
37267;SDS011;23154;52.542;13.362;2023-07-20T12:30:37;5.43;;;0.90;;
37267;SDS011;23154;52.542;13.362;2023-07-20T12:33:03;5.38;;;2.08;;
37267;SDS011;23154;52.542;13.362;2023-07-20T12:35:30;5.55;;;0.90;;
37267;SDS011;23154;52.542;13.362;2023-07-20T12:37:56;2.38;;;1.05;;
37267;SDS011;23154;52.542;13.362;2023-07-20T12:40:23;2.75;;;1.00;;
37267;SDS011;23154;52.542;13.362;2023-07-20T12:42:49;3.65;;;0.82;;
37267;SDS011;23154;52.542;13.362;2023-07-20T12:45:15;2.38;;;0.85;;
37267;SDS011;23154;52.542;13.362;2023-07-20T12:47:41;4.88;;;1.02;;
37267;SDS011;23154;52.542;13.362;2023-07-20T12:50:11;3.50;;;0.98;;
37267;SDS011;23154;52.542;13.362;2023-07-20T12:52:38;1.58;;;0.90;;
37267;SDS011;23154;52.542;13.362;2023-07-20T12:55:05;4.00;;;0.93;;
37267;SDS011;23154;52.542;13.362;2023-07-20T12:57:32;6.18;;;1.20;;
37267;SDS011;23154;52.542;13.362;2023-07-20T12:59:58;2.33;;;0.93;;
37267;SDS011;23154;52.542;13.362;2023-07-20T13:02:24;2.70;;;1.20;;
37267;SDS011;23154;52.542;13.362;2023-07-20T13:04:50;1.70;;;0.88;;
37267;SDS011;23154;52.542;13.362;2023-07-20T13:07:16;3.17;;;1.15;;
37267;SDS011;23154;52.542;13.362;2023-07-20T13:09:54;6.28;;;1.10;;
37267;SDS011;23154;52.542;13.362;2023-07-20T13:12:21;1.70;;;0.77;;
37267;SDS011;23154;52.542;13.362;2023-07-20T13:14:47;2.55;;;0.93;;
37267;SDS011;23154;52.542;13.362;2023-07-20T13:17:13;1.85;;;0.85;;
37267;SDS011;23154;52.542;13.362;2023-07-20T13:19:42;3.10;;;1.00;;
37267;SDS011;23154;52.542;13.362;2023-07-20T13:22:08;2.50;;;0.60;;
37267;SDS011;23154;52.542;13.362;2023-07-20T13:24:35;2.40;;;1.00;;
37267;SDS011;23154;52.542;13.362;2023-07-20T13:27:01;1.40;;;0.80;;
37267;SDS011;23154;52.542;13.362;2023-07-20T13:29:28;5.93;;;1.00;;
37267;SDS011;23154;52.542;13.362;2023-07-20T13:31:54;3.05;;;0.90;;
37267;SDS011;23154;52.542;13.362;2023-07-20T13:34:20;1.75;;;0.80;;
37267;SDS011;23154;52.542;13.362;2023-07-20T13:36:46;2.92;;;0.88;;
37267;SDS011;23154;52.542;13.362;2023-07-20T13:39:12;2.08;;;0.77;;
37267;SDS011;23154;52.542;13.362;2023-07-20T13:41:38;3.38;;;0.90;;
37267;SDS011;23154;52.542;13.362;2023-07-20T13:44:04;5.63;;;0.98;;
37267;SDS011;23154;52.542;13.362;2023-07-20T13:46:30;4.60;;;1.02;;
37267;SDS011;23154;52.542;13.362;2023-07-20T13:48:56;3.97;;;1.00;;
37267;SDS011;23154;52.542;13.362;2023-07-20T13:51:22;2.75;;;1.10;;
37267;SDS011;23154;52.542;13.362;2023-07-20T13:53:48;3.83;;;1.13;;
37267;SDS011;23154;52.542;13.362;2023-07-20T13:56:14;1.58;;;0.95;;
37267;SDS011;23154;52.542;13.362;2023-07-20T13:58:41;1.83;;;0.90;;
37267;SDS011;23154;52.542;13.362;2023-07-20T14:01:08;4.68;;;1.17;;
37267;SDS011;23154;52.542;13.362;2023-07-20T14:03:34;3.70;;;0.85;;
37267;SDS011;23154;52.542;13.362;2023-07-20T14:06:00;1.48;;;0.80;;
37267;SDS011;23154;52.542;13.362;2023-07-20T14:08:26;2.35;;;1.00;;
37267;SDS011;23154;52.542;13.362;2023-07-20T14:10:54;2.40;;;0.90;;
37267;SDS011;23154;52.542;13.362;2023-07-20T14:13:21;5.03;;;0.93;;
37267;SDS011;23154;52.542;13.362;2023-07-20T14:15:48;2.95;;;0.93;;
37267;SDS011;23154;52.542;13.362;2023-07-20T14:18:21;3.42;;;0.80;;
37267;SDS011;23154;52.542;13.362;2023-07-20T14:20:47;1.25;;;0.85;;
37267;SDS011;23154;52.542;13.362;2023-07-20T14:23:15;4.07;;;1.00;;
37267;SDS011;23154;52.542;13.362;2023-07-20T14:28:11;3.67;;;1.30;;
37267;SDS011;23154;52.542;13.362;2023-07-20T14:30:38;4.20;;;1.25;;
37267;SDS011;23154;52.542;13.362;2023-07-20T14:33:06;4.95;;;1.30;;
37267;SDS011;23154;52.542;13.362;2023-07-20T14:35:34;3.05;;;1.00;;
37267;SDS011;23154;52.542;13.362;2023-07-20T14:38:03;2.40;;;0.90;;
37267;SDS011;23154;52.542;13.362;2023-07-20T14:40:31;3.70;;;1.10;;
37267;SDS011;23154;52.542;13.362;2023-07-20T14:42:58;8.52;;;1.65;;
37267;SDS011;23154;52.542;13.362;2023-07-20T14:45:28;3.65;;;1.08;;
37267;SDS011;23154;52.542;13.362;2023-07-20T14:47:55;3.22;;;1.00;;
37267;SDS011;23154;52.542;13.362;2023-07-20T14:50:24;8.05;;;1.88;;
37267;SDS011;23154;52.542;13.362;2023-07-20T14:52:54;1.98;;;0.90;;
37267;SDS011;23154;52.542;13.362;2023-07-20T14:55:21;4.50;;;1.10;;
37267;SDS011;23154;52.542;13.362;2023-07-20T14:57:49;4.10;;;1.17;;
37267;SDS011;23154;52.542;13.362;2023-07-20T15:00:20;1.90;;;0.88;;